Time;durP1;ratioP1;P1;durP2;ratioP2;P2;SDS_P1;SDS_P2;PMS_P1;PMS_P2;Temp;Humidity;BMP_temperature;BMP_pressure;BME280_temperature;BME280_humidity;BME280_pressure;Samples;Min_cycle;Max_cycle;Signal;HPM_P1;HPM_P2
2022/04/05 09:27:23;;;;;;;;;;;;;;;11.02;49.03;99502.34;5052521;27;20558;-61
2022/04/05 09:29:51;;;;;;;9.75;1.95;;;;;;;10.00;51.85;99497.84;5063144;28;19930;-63
2022/04/05 09:32:32;;;;;;;5.57;1.70;;;;;;;9.79;52.01;99501.09;5062067;28;20162;-63
2022/04/05 09:35:00;;;;;;;11.05;1.95;;;;;;;9.44;53.94;99508.94;5057349;28;20067;-63
2022/04/05 09:37:28;;;;;;;11.13;1.70;;;;;;;9.27;54.29;99517.16;5055525;28;20049;-62
2022/04/05 09:40:33;;;;;;;10.57;1.88;;;;;;;9.07;53.53;99508.09;5053554;28;20081;-64
2022/04/05 09:43:22;;;;;;;6.97;1.52;;;;;;;8.79;54.50;99522.31;5058037;28;20485;-62
2022/04/05 09:45:58;;;;;;;6.65;1.15;;;;;;;8.45;55.67;99511.47;5046545;28;20049;-64
2022/04/05 09:48:29;;;;;;;5.78;1.33;;;;;;;7.99;56.49;99527.63;5060646;28;20072;-63
2022/04/05 09:51:12;;;;;;;8.75;1.83;;;;;;;7.96;57.35;99530.44;5056022;28;20055;-63
2022/04/05 09:53:39;;;;;;;12.02;1.45;;;;;;;7.96;57.06;99521.75;5053978;28;20059;-64
2022/04/05 09:56:20;;;;;;;5.18;1.00;;;;;;;7.91;56.18;99531.69;5055202;28;20064;-64
2022/04/05 09:59:12;;;;;;;11.40;1.45;;;;;;;8.05;56.70;99527.22;5050528;28;20677;-64
2022/04/05 10:01:39;;;;;;;4.32;1.42;;;;;;;7.95;57.49;99538.41;5054533;28;20061;-61
2022/04/05 10:04:12;;;;;;;8.10;1.33;;;;;;;7.81;57.29;99521.81;5050981;28;20057;-63
2022/04/05 10:06:46;;;;;;;6.32;1.60;;;;;;;7.94;57.78;99531.50;5057243;28;20060;-63
2022/04/05 10:09:15;;;;;;;8.73;1.98;;;;;;;8.06;57.92;99538.53;5055329;28;20052;-62
2022/04/05 10:11:44;;;;;;;6.63;1.20;;;;;;;8.31;57.20;99527.28;5059211;28;20056;-64
2022/04/05 10:14:13;;;;;;;8.25;2.25;;;;;;;8.43;56.96;99526.50;5057440;28;20048;-64
2022/04/05 10:16:40;;;;;;;10.18;1.77;;;;;;;8.85;55.59;99540.25;5052930;28;21109;-64
2022/04/05 10:19:10;;;;;;;11.32;1.83;;;;;;;8.50;55.63;99540.03;5053156;28;20056;-64
2022/04/05 10:21:41;;;;;;;6.97;1.73;;;;;;;8.21;56.80;99534.94;5055521;28;20148;-64
2022/04/05 10:24:10;;;;;;;6.10;1.45;;;;;;;8.27;56.23;99542.38;5056534;28;20040;-63
2022/04/05 10:26:41;;;;;;;6.28;1.20;;;;;;;8.02;58.13;99534.47;5057298;28;20049;-63
2022/04/05 10:29:11;;;;;;;7.57;1.35;;;;;;;8.09;57.96;99530.50;5054713;28;20060;-62
2022/04/05 10:31:41;;;;;;;7.45;1.83;;;;;;;8.21;57.26;99528.84;5053921;28;20058;-62
2022/04/05 10:34:39;;;;;;;9.70;1.83;;;;;;;8.75;57.28;99526.09;5057035;28;20401;-63
2022/04/05 10:37:31;;;;;;;5.25;1.50;;;;;;;9.20;56.24;99529.91;5051089;28;20045;-64
2022/04/05 10:39:58;;;;;;;9.07;1.35;;;;;;;9.21;55.23;99522.88;5043885;28;20049;-64
2022/04/05 10:42:35;;;;;;;7.65;2.05;;;;;;;9.32;54.63;99526.44;5044575;28;20787;-64
2022/04/05 10:45:11;;;;;;;6.95;1.10;;;;;;;9.05;56.05;99529.22;5041744;28;20045;-64
2022/04/05 10:48:03;;;;;;;7.78;1.67;;;;;;;9.04;55.13;99538.00;5042575;28;20065;-62
2022/04/05 10:51:01;;;;;;;7.80;1.95;;;;;;;8.98;54.86;99530.56;5042162;28;20064;-63
2022/04/05 10:53:33;;;;;;;4.38;1.20;;;;;;;8.94;54.63;99528.28;5041672;28;20919;-62
2022/04/05 10:56:03;;;;;;;3.67;1.15;;;;;;;9.44;54.35;99534.34;5036409;28;20534;-61
2022/04/05 10:58:32;;;;;;;9.63;1.60;;;;;;;9.86;53.13;99530.41;5042260;28;20066;-62
2022/04/05 11:01:18;;;;;;;4.65;1.27;;;;;;;9.72;51.99;99526.16;5039829;28;20050;-61
2022/04/05 11:04:09;;;;;;;5.97;1.30;;;;;;;9.99;51.75;99523.28;5039450;28;20068;-62
2022/04/05 11:06:58;;;;;;;4.82;1.20;;;;;;;9.94;52.07;99521.97;5041482;28;20045;-62
2022/04/05 11:09:27;;;;;;;4.97;0.98;;;;;;;10.07;50.83;99514.84;5041978;28;20072;-62
2022/04/05 11:11:55;;;;;;;7.43;1.30;;;;;;;9.74;52.16;99510.28;5040029;28;20061;-63
2022/04/05 11:14:38;;;;;;;7.07;1.52;;;;;;;9.34;52.78;99524.50;5038508;28;20140;-61
2022/04/05 11:17:07;;;;;;;4.68;1.20;;;;;;;9.15;53.77;99512.81;5038248;28;20579;-62
2022/04/05 11:19:36;;;;;;;10.00;1.38;;;;;;;9.27;53.00;99519.78;5041972;28;20057;-63
2022/04/05 11:22:27;;;;;;;4.97;1.27;;;;;;;9.32;52.93;99515.91;5039959;28;20058;-62
2022/04/05 11:25:13;;;;;;;7.25;1.40;;;;;;;9.28;53.21;99495.22;5041641;28;20060;-63
2022/04/05 11:27:47;;;;;;;17.70;2.13;;;;;;;9.53;52.99;99510.06;5044332;28;20060;-62
2022/04/05 11:30:39;;;;;;;10.48;1.55;;;;;;;9.46;53.06;99508.84;5048357;28;20056;-62
2022/04/05 11:33:11;;;;;;;14.80;1.60;;;;;;;9.57;52.22;99512.34;5041333;28;20061;-62
2022/04/05 11:35:50;;;;;;;5.65;1.45;;;;;;;9.52;53.14;99514.47;5040246;28;20583;-63
2022/04/05 11:38:18;;;;;;;6.70;1.20;;;;;;;9.33;52.79;99511.50;5043075;28;20053;-64
2022/04/05 11:40:58;;;;;;;8.18;1.70;;;;;;;8.93;54.15;99514.31;5032691;28;20080;-64
2022/04/05 11:43:30;;;;;;;9.43;1.70;;;;;;;8.85;54.46;99509.59;5058595;28;20041;-64
2022/04/05 11:45:59;;;;;;;4.88;1.20;;;;;;;8.92;53.62;99514.44;5040862;28;20091;-64
2022/04/05 11:48:27;;;;;;;6.22;1.75;;;;;;;8.91;52.73;99497.81;5039334;28;20061;-61
2022/04/05 11:50:58;;;;;;;10.90;1.58;;;;;;;8.83;52.44;99510.66;5042732;28;20538;-61
2022/04/05 11:53:30;;;;;;;12.25;1.40;;;;;;;8.76;53.57;99509.38;5040550;28;20045;-61
2022/04/05 11:56:05;;;;;;;6.90;1.27;;;;;;;8.97;52.44;99512.31;5038212;28;20045;-63
2022/04/05 11:58:36;;;;;;;9.63;2.28;;;;;;;9.19;52.39;99512.47;5038191;28;20057;-61
2022/04/05 12:01:08;;;;;;;6.93;1.40;;;;;;;9.37;52.54;99502.47;5041098;28;20057;-64
2022/04/05 12:03:49;;;;;;;6.88;1.50;;;;;;;9.42;52.52;99505.59;5040267;28;20063;-63
2022/04/05 12:06:20;;;;;;;9.73;1.90;;;;;;;9.46;51.83;99506.22;5041186;28;20055;-63
2022/04/05 12:08:49;;;;;;;6.75;1.27;;;;;;;9.54;52.21;99509.94;5042214;28;20056;-64
2022/04/05 12:11:19;;;;;;;6.30;1.55;;;;;;;9.15;53.62;99511.03;5037382;28;20060;-63
2022/04/05 12:13:54;;;;;;;5.80;1.10;;;;;;;8.79;52.64;99524.94;5036645;28;20144;-63
2022/04/05 12:16:22;;;;;;;5.28;1.40;;;;;;;8.57;53.11;99507.19;5048003;28;20079;-63
2022/04/05 12:18:51;;;;;;;4.28;1.48;;;;;;;8.45;54.41;99506.25;5040768;28;20553;-63
2022/04/05 12:21:21;;;;;;;5.55;1.25;;;;;;;8.41;55.18;99509.16;5040551;28;20053;-63
2022/04/05 12:23:49;;;;;;;3.55;1.08;;;;;;;8.25;54.16;99522.47;5020263;28;20061;-63
2022/04/05 12:26:21;;;;;;;7.78;1.50;;;;;;;8.16;55.12;99515.22;5036274;28;20053;-63
2022/04/05 12:28:54;;;;;;;7.03;1.38;;;;;;;8.13;55.03;99509.22;5036819;28;20089;-65
2022/04/05 12:31:27;;;;;;;4.00;0.90;;;;;;;8.28;55.41;99517.00;5037092;28;20059;-64
2022/04/05 12:34:09;;;;;;;12.93;2.00;;;;;;;8.53;55.37;99514.44;5035583;28;20407;-63
2022/04/05 12:36:45;;;;;;;5.38;1.35;;;;;;;8.88;54.19;99522.50;5041006;28;20045;-64
2022/04/05 12:39:25;;;;;;;8.25;1.90;;;;;;;9.04;54.28;99513.53;5036332;28;20061;-65
2022/04/05 12:42:07;;;;;;;6.37;1.23;;;;;;;8.94;54.19;99504.66;5040299;28;20067;-61
2022/04/05 12:44:43;;;;;;;4.40;1.20;;;;;;;9.20;54.50;99498.41;5039934;28;20478;-64
2022/04/05 12:47:20;;;;;;;5.28;1.40;;;;;;;9.30;54.56;99503.84;5042417;28;20067;-63
2022/04/05 12:49:52;;;;;;;13.10;1.67;;;;;;;9.20;54.48;99505.44;5038564;28;20037;-63
2022/04/05 12:52:27;;;;;;;5.15;1.35;;;;;;;9.00;53.75;99505.03;5039228;28;20077;-63
2022/04/05 12:54:58;;;;;;;5.90;1.30;;;;;;;8.90;53.79;99501.38;5035757;28;20087;-61
2022/04/05 12:57:26;;;;;;;5.35;1.25;;;;;;;8.76;54.90;99507.59;5042308;28;20045;-61
2022/04/05 13:00:07;;;;;;;3.45;1.20;;;;;;;9.12;53.13;99496.31;5033484;28;20394;-63
2022/04/05 13:02:50;;;;;;;7.55;1.10;;;;;;;9.85;52.44;99486.66;5042991;28;20127;-62
2022/04/05 13:08:10;;;;;;;7.43;1.50;;;;;;;10.56;52.18;99500.66;5024559;28;20080;-64
2022/04/05 13:10:42;;;;;;;7.38;1.48;;;;;;;10.52;51.65;99494.78;5006735;28;20064;-65
2022/04/05 13:13:12;;;;;;;5.85;1.20;;;;;;;10.07;52.42;99494.63;5024920;28;20049;-62
2022/04/05 13:15:41;;;;;;;8.30;1.30;;;;;;;9.85;53.79;99499.81;5023970;28;20061;-65
2022/04/05 13:18:08;;;;;;;6.50;1.52;;;;;;;10.05;53.74;99496.56;5026401;28;20423;-63
2022/04/05 13:20:35;;;;;;;6.65;1.70;;;;;;;10.23;51.88;99504.03;5020893;28;20224;-64
2022/04/05 13:23:04;;;;;;;7.47;1.42;;;;;;;9.83;53.26;99485.97;5021493;28;20133;-62
2022/04/05 13:25:36;;;;;;;5.72;1.40;;;;;;;9.55;54.74;99495.88;4997412;28;20418;-65
2022/04/05 13:28:04;;;;;;;6.43;1.30;;;;;;;9.58;54.88;99500.88;5017800;28;20129;-64
2022/04/05 13:30:42;;;;;;;6.80;1.10;;;;;;;9.55;56.04;99521.31;5006705;28;20061;-65
2022/04/05 13:33:10;;;;;;;7.13;1.42;;;;;;;9.33;56.23;99501.81;5007125;28;20056;-61
2022/04/05 13:35:37;;;;;;;5.57;1.33;;;;;;;9.16;57.02;99524.97;5021100;28;20054;-61
2022/04/05 13:38:04;;;;;;;4.20;1.10;;;;;;;9.07;58.04;99501.06;5023455;28;20547;-61
2022/04/05 13:40:33;;;;;;;5.72;1.38;;;;;;;9.20;58.18;99505.44;5017754;28;20075;-65
2022/04/05 13:43:00;;;;;;;7.10;1.38;;;;;;;9.22;57.84;99496.50;5004197;28;20046;-64
2022/04/05 13:45:27;;;;;;;6.63;1.80;;;;;;;9.26;58.33;99491.88;5020323;28;20129;-63
2022/04/05 13:47:55;;;;;;;7.25;1.40;;;;;;;9.07;58.78;99493.19;5019014;28;20506;-63
2022/04/05 13:50:23;;;;;;;7.10;1.55;;;;;;;8.91;59.58;99492.56;5023229;28;20053;-64
2022/04/05 13:52:50;;;;;;;7.05;1.42;;;;;;;8.93;60.40;99498.56;5004674;28;20053;-62
2022/04/05 13:55:17;;;;;;;7.10;1.30;;;;;;;8.92;61.28;99491.63;5001466;28;20417;-63
2022/04/05 13:57:44;;;;;;;6.05;1.20;;;;;;;8.75;61.31;99492.81;5001308;28;20053;-65
2022/04/05 14:00:12;;;;;;;5.45;1.67;;;;;;;8.87;61.57;99498.97;5019627;28;20598;-63
2022/04/05 14:02:39;;;;;;;6.45;1.27;;;;;;;8.79;61.72;99501.31;5019656;28;20053;-62
2022/04/05 14:05:06;;;;;;;6.75;1.52;;;;;;;8.90;62.02;99496.13;5014512;28;20609;-64
2022/04/05 14:07:34;;;;;;;6.05;1.60;;;;;;;8.87;62.05;99481.47;5000855;28;20136;-63
2022/04/05 14:10:01;;;;;;;4.38;1.20;;;;;;;8.81;62.34;99481.03;5014462;28;20054;-65
2022/04/05 14:12:28;;;;;;;7.57;1.98;;;;;;;8.84;63.05;99483.47;5022254;28;20041;-65
2022/04/05 14:14:56;;;;;;;6.70;1.75;;;;;;;8.65;63.36;99493.56;5017651;28;20045;-62
2022/04/05 14:17:23;;;;;;;4.57;1.70;;;;;;;8.49;64.50;99483.28;5022801;28;20060;-65
2022/04/05 14:19:50;;;;;;;7.97;1.35;;;;;;;8.48;65.96;99471.09;5020968;28;20513;-60
2022/04/05 14:22:17;;;;;;;7.00;2.20;;;;;;;8.37;66.57;99477.06;5020140;28;20054;-62
2022/04/05 14:24:45;;;;;;;6.55;1.20;;;;;;;8.21;68.47;99479.88;5014666;28;20046;-63
2022/04/05 14:27:17;;;;;;;6.75;1.50;;;;;;;8.11;69.63;99481.44;5022562;28;20051;-64
2022/04/05 14:29:44;;;;;;;10.23;1.65;;;;;;;8.17;70.73;99477.56;5021518;28;21635;-66
2022/04/05 14:32:12;;;;;;;5.90;1.33;;;;;;;8.20;71.17;99485.22;5022228;28;20061;-64
2022/04/05 14:34:40;;;;;;;9.07;1.63;;;;;;;8.31;70.52;99474.84;5023336;28;20675;-65
2022/04/05 14:37:07;;;;;;;14.70;1.88;;;;;;;8.42;72.26;99477.63;5004948;28;20053;-63
2022/04/05 14:39:36;;;;;;;4.32;1.50;;;;;;;8.40;72.97;99476.88;5022463;28;20053;-65
2022/04/05 14:42:04;;;;;;;8.13;2.17;;;;;;;8.45;71.67;99477.38;5009222;28;20049;-64
2022/04/05 14:44:32;;;;;;;10.15;1.77;;;;;;;8.29;71.95;99480.19;5020937;28;20045;-64
2022/04/05 14:47:00;;;;;;;9.77;1.55;;;;;;;8.26;74.02;99480.41;5023388;28;20046;-63
2022/04/05 14:49:28;;;;;;;7.75;1.90;;;;;;;8.10;75.52;99471.88;5020251;28;20072;-64
2022/04/05 14:51:56;;;;;;;8.05;1.67;;;;;;;7.97;75.83;99474.50;5022981;28;20136;-64
2022/04/05 14:54:23;;;;;;;9.88;2.50;;;;;;;7.96;77.73;99471.97;5018550;28;20058;-65
2022/04/05 14:56:50;;;;;;;8.43;1.80;;;;;;;7.95;78.39;99475.53;5019241;28;20058;-65
2022/04/05 14:59:22;;;;;;;7.57;1.80;;;;;;;7.80;77.15;99470.38;5015553;28;20532;-63
2022/04/05 15:01:50;;;;;;;9.60;2.00;;;;;;;7.77;78.04;99459.25;5015637;28;20042;-64
2022/04/05 15:04:17;;;;;;;7.93;2.20;;;;;;;7.86;78.87;99458.63;5018839;28;20064;-64
2022/04/05 15:06:52;;;;;;;6.93;1.98;;;;;;;7.94;78.98;99466.00;5001990;28;20057;-63
2022/04/05 15:09:19;;;;;;;13.52;1.88;;;;;;;7.94;78.23;99469.44;5001741;28;20058;-64
2022/04/05 15:11:46;;;;;;;6.05;1.70;;;;;;;8.15;78.59;99461.06;5000235;28;20076;-65
2022/04/05 15:14:13;;;;;;;7.15;1.73;;;;;;;8.27;76.77;99460.25;5022102;28;20057;-65
2022/04/05 15:16:41;;;;;;;6.45;1.50;;;;;;;8.35;77.23;99458.78;5017577;28;20067;-64
2022/04/05 15:19:08;;;;;;;7.15;1.95;;;;;;;8.58;76.58;99453.78;5021100;28;20065;-64
2022/04/05 15:21:36;;;;;;;7.97;2.00;;;;;;;8.87;75.30;99454.34;5004536;28;20064;-64
2022/04/05 15:24:03;;;;;;;14.55;1.95;;;;;;;8.71;75.66;99459.03;5005246;28;20128;-61
2022/04/05 15:26:30;;;;;;;6.13;1.50;;;;;;;8.44;76.63;99451.28;5023932;28;20046;-63
2022/04/05 15:28:58;;;;;;;4.93;1.77;;;;;;;8.34;77.94;99441.38;5021962;28;20132;-63
2022/04/05 15:31:25;;;;;;;9.52;2.22;;;;;;;8.30;78.17;99444.31;5018604;28;20140;-62
2022/04/05 15:33:52;;;;;;;7.70;2.00;;;;;;;8.22;79.11;99444.84;5005269;28;20740;-64
2022/04/05 15:36:19;;;;;;;6.40;1.55;;;;;;;8.04;80.59;99444.28;5021141;28;20107;-64
2022/04/05 15:38:46;;;;;;;8.48;2.05;;;;;;;8.04;80.80;99439.06;5015709;28;20054;-65
2022/04/05 15:41:15;;;;;;;8.18;2.28;;;;;;;8.00;81.32;99447.22;5020335;28;20505;-62
2022/04/05 15:43:43;;;;;;;6.40;2.92;;;;;;;8.01;81.45;99441.03;4998357;28;20389;-64
2022/04/05 15:46:10;;;;;;;11.90;2.40;;;;;;;8.07;82.29;99436.25;5002604;28;20037;-64
2022/04/05 15:48:37;;;;;;;7.13;2.25;;;;;;;8.08;82.52;99440.53;5020792;28;20057;-66
2022/04/05 15:51:09;;;;;;;14.75;2.55;;;;;;;8.18;82.75;99439.91;5020970;28;20067;-64
2022/04/05 15:53:36;;;;;;;6.57;2.47;;;;;;;8.19;83.54;99438.97;5021430;28;20060;-62
2022/04/05 15:56:03;;;;;;;5.57;2.70;;;;;;;8.07;82.72;99443.25;5020731;28;20049;-63
2022/04/05 15:58:30;;;;;;;16.77;3.00;;;;;;;7.91;83.74;99443.44;5018657;28;20697;-64
2022/04/05 16:00:58;;;;;;;8.10;2.63;;;;;;;7.82;84.76;99434.41;5020814;28;20617;-63
2022/04/05 16:03:26;;;;;;;7.07;3.03;;;;;;;7.80;85.00;99444.16;5003487;28;20041;-64
2022/04/05 16:05:54;;;;;;;9.32;2.50;;;;;;;7.69;85.75;99440.56;5002179;28;20064;-64
2022/04/05 16:08:23;;;;;;;11.60;2.75;;;;;;;7.65;86.69;99439.09;5003899;28;20046;-64
2022/04/05 16:10:51;;;;;;;6.53;2.20;;;;;;;7.61;87.51;99441.09;5016777;28;20049;-63
2022/04/05 16:13:18;;;;;;;6.43;2.90;;;;;;;7.64;87.80;99425.16;4989493;28;20057;-66
2022/04/05 16:15:46;;;;;;;7.43;2.60;;;;;;;7.66;88.04;99425.91;5020247;28;20052;-64
2022/04/05 16:18:13;;;;;;;6.90;2.63;;;;;;;7.65;88.68;99420.75;5020906;28;20761;-64
2022/04/05 16:20:40;;;;;;;5.47;2.80;;;;;;;7.67;88.41;99427.56;5002399;28;20083;-63
2022/04/05 16:23:08;;;;;;;10.27;3.15;;;;;;;7.67;88.97;99430.19;5019175;28;20046;-64
2022/04/05 16:25:35;;;;;;;5.32;2.58;;;;;;;7.66;89.20;99430.31;5021606;28;20056;-65
2022/04/05 16:28:03;;;;;;;11.07;3.53;;;;;;;7.64;89.81;99435.63;5001076;28;20505;-63
2022/04/05 16:30:30;;;;;;;8.45;2.95;;;;;;;7.64;89.93;99430.38;5020703;28;20190;-64
2022/04/05 16:32:59;;;;;;;10.95;3.15;;;;;;;7.58;90.87;99426.41;5023473;28;20367;-64
2022/04/05 16:35:26;;;;;;;9.80;3.75;;;;;;;7.57;91.78;99424.72;5019694;28;20076;-64
2022/04/05 16:37:54;;;;;;;10.48;3.40;;;;;;;7.58;91.84;99423.78;5018370;28;20053;-64
2022/04/05 16:40:21;;;;;;;7.82;3.33;;;;;;;7.52;93.07;99434.66;5001865;28;20178;-65
2022/04/05 16:42:48;;;;;;;5.50;2.83;;;;;;;7.50;92.75;99419.97;5015093;28;20441;-65
2022/04/05 16:45:16;;;;;;;7.07;3.25;;;;;;;7.49;92.82;99421.75;5015206;28;20064;-65
2022/04/05 16:47:43;;;;;;;9.13;3.38;;;;;;;7.47;93.53;99422.78;5019297;28;20057;-67
2022/04/05 16:50:12;;;;;;;9.10;3.45;;;;;;;7.47;93.92;99417.56;5003286;28;20645;-64
2022/04/05 16:52:40;;;;;;;9.77;3.50;;;;;;;7.50;94.97;99422.59;5014905;28;20488;-62
2022/04/05 16:55:08;;;;;;;7.80;3.85;;;;;;;7.50;94.73;99415.59;5013699;28;20052;-65
2022/04/05 16:57:36;;;;;;;9.13;4.28;;;;;;;7.50;94.20;99414.75;5018478;28;20160;-65
2022/04/05 17:00:05;;;;;;;13.23;3.67;;;;;;;7.51;93.82;99409.41;5018184;28;20037;-65
2022/04/05 17:02:33;;;;;;;7.30;3.30;;;;;;;7.46;94.06;99406.25;5015662;28;20046;-63
2022/04/05 17:05:01;;;;;;;5.65;3.53;;;;;;;7.43;93.52;99419.56;5016066;28;20119;-63
2022/04/05 17:07:28;;;;;;;7.25;4.25;;;;;;;7.31;94.29;99413.34;5014013;28;20053;-65
2022/04/05 17:09:55;;;;;;;9.05;4.03;;;;;;;7.28;94.52;99399.59;5017231;28;20072;-64
2022/04/05 17:12:24;;;;;;;12.77;4.25;;;;;;;7.27;95.26;99403.16;5018593;28;20049;-64
2022/04/05 17:14:52;;;;;;;6.28;3.80;;;;;;;7.25;94.99;99402.41;5017427;28;20045;-65
2022/04/05 17:17:19;;;;;;;12.23;4.88;;;;;;;7.23;95.44;99401.66;5018979;28;20060;-65
2022/04/05 17:19:52;;;;;;;7.05;3.75;;;;;;;7.21;95.23;99401.78;5000386;28;20061;-65
2022/04/05 17:22:20;;;;;;;12.80;4.72;;;;;;;7.17;95.46;99402.06;5017017;28;20574;-66
2022/04/05 17:24:50;;;;;;;7.80;4.00;;;;;;;7.13;96.22;99406.66;5001312;28;20041;-65
2022/04/05 17:27:18;;;;;;;7.28;4.50;;;;;;;7.13;96.43;99403.22;5020316;28;20589;-64
2022/04/05 17:29:45;;;;;;;6.95;4.68;;;;;;;7.10;96.84;99401.63;5003398;28;20057;-65
2022/04/05 17:32:13;;;;;;;7.75;4.60;;;;;;;7.07;97.08;99396.59;5021063;28;20148;-64
2022/04/05 17:34:40;;;;;;;9.38;4.00;;;;;;;7.05;97.31;99401.91;5017656;28;20050;-64
2022/04/05 17:37:07;;;;;;;6.35;4.20;;;;;;;7.08;97.30;99409.56;5018928;28;20059;-64
2022/04/05 17:39:34;;;;;;;7.38;4.45;;;;;;;7.08;97.43;99408.75;5014424;28;20050;-64
2022/04/05 17:42:02;;;;;;;7.32;4.05;;;;;;;7.07;97.73;99410.53;5002357;28;20061;-65
2022/04/05 17:44:29;;;;;;;9.32;4.60;;;;;;;7.12;97.93;99398.91;5020589;28;20076;-66
2022/04/05 17:46:57;;;;;;;6.55;4.50;;;;;;;7.08;97.99;99396.50;5021652;28;20060;-65
2022/04/05 17:49:25;;;;;;;10.38;4.97;;;;;;;7.10;98.26;99394.59;5025736;28;20405;-65
2022/04/05 17:51:52;;;;;;;8.68;4.32;;;;;;;7.09;97.34;99392.94;5002845;28;20171;-64
2022/04/05 17:54:19;;;;;;;6.50;4.18;;;;;;;7.10;97.77;99386.75;5003709;28;20149;-67
2022/04/05 17:56:47;;;;;;;6.47;4.53;;;;;;;7.09;98.18;99390.31;4997741;28;20045;-66
2022/04/05 17:59:14;;;;;;;7.88;4.20;;;;;;;7.09;98.67;99382.47;5021501;28;20049;-66
2022/04/05 18:01:41;;;;;;;8.82;4.40;;;;;;;7.10;98.15;99384.13;5019761;28;20390;-66
2022/04/05 18:04:10;;;;;;;7.72;4.25;;;;;;;7.10;98.30;99384.13;5020160;28;20053;-67
2022/04/05 18:06:37;;;;;;;7.20;4.20;;;;;;;7.13;98.28;99380.50;5018662;28;20068;-63
2022/04/05 18:09:06;;;;;;;7.63;4.30;;;;;;;7.10;98.20;99389.38;5026942;28;20128;-64
2022/04/05 18:11:36;;;;;;;5.47;3.97;;;;;;;7.13;97.78;99379.66;5008804;28;20049;-63
2022/04/05 18:14:07;;;;;;;6.88;4.35;;;;;;;7.13;98.06;99392.75;5014936;28;20050;-64
2022/04/05 18:16:35;;;;;;;4.75;3.75;;;;;;;7.14;98.31;99397.88;5025643;28;20650;-68
2022/04/05 18:19:03;;;;;;;6.15;4.47;;;;;;;7.14;98.48;99395.25;5021945;28;20749;-64
2022/04/05 18:21:31;;;;;;;10.40;4.35;;;;;;;7.13;98.47;99390.13;5022826;28;20056;-65
2022/04/05 18:24:00;;;;;;;8.45;5.05;;;;;;;7.15;98.86;99390.84;4992167;28;20061;-65
2022/04/05 18:26:28;;;;;;;6.80;4.65;;;;;;;7.17;99.07;99397.69;5019620;28;20597;-66
2022/04/05 18:28:55;;;;;;;9.40;6.07;;;;;;;7.16;99.47;99395.13;5025757;28;20057;-64
2022/04/05 18:31:23;;;;;;;10.52;5.47;;;;;;;7.20;100.00;99387.00;5021024;28;20053;-63
2022/04/05 18:33:52;;;;;;;10.32;5.93;;;;;;;7.18;100.00;99393.28;5023155;28;20427;-65
2022/04/05 18:36:19;;;;;;;10.18;5.80;;;;;;;7.16;100.00;99387.28;5009045;28;20065;-63
2022/04/05 18:38:47;;;;;;;10.98;6.00;;;;;;;7.14;100.00;99390.00;5023918;28;20145;-65
2022/04/05 18:41:15;;;;;;;11.15;6.38;;;;;;;7.12;100.00;99380.59;5024692;28;20061;-65
2022/04/05 18:43:43;;;;;;;11.45;6.35;;;;;;;7.16;100.00;99392.53;5023401;28;20060;-66
2022/04/05 18:46:10;;;;;;;10.38;5.97;;;;;;;7.18;100.00;99391.50;5026011;28;20060;-66
2022/04/05 18:48:38;;;;;;;9.98;6.07;;;;;;;7.23;100.00;99393.81;5025205;28;20136;-66
2022/04/05 18:51:06;;;;;;;8.38;6.28;;;;;;;7.22;100.00;99389.53;5027450;28;20060;-65
2022/04/05 18:53:34;;;;;;;9.25;6.47;;;;;;;7.20;100.00;99386.16;5013097;28;20161;-65
2022/04/05 18:56:05;;;;;;;9.70;6.47;;;;;;;7.25;100.00;99387.56;5029525;28;20049;-65
2022/04/05 18:58:32;;;;;;;13.15;6.75;;;;;;;7.24;100.00;99385.03;5020924;28;20057;-65
2022/04/05 19:01:00;;;;;;;7.50;6.47;;;;;;;7.24;100.00;99377.16;5011104;28;20246;-65
2022/04/05 19:03:28;;;;;;;11.30;6.97;;;;;;;7.21;100.00;99386.06;5031964;28;20057;-63
2022/04/05 19:05:56;;;;;;;11.38;8.10;;;;;;;7.14;100.00;99391.78;5022964;28;20053;-64
2022/04/05 19:08:23;;;;;;;15.60;8.25;;;;;;;7.14;100.00;99376.09;5009506;28;20473;-65
2022/04/05 19:10:57;;;;;;;9.13;7.63;;;;;;;7.15;100.00;99375.16;5007249;28;20609;-64
2022/04/05 19:13:24;;;;;;;16.52;9.50;;;;;;;7.12;100.00;99383.22;5025350;28;20056;-65
2022/04/05 19:15:53;;;;;;;15.60;9.23;;;;;;;7.07;100.00;99379.13;5023657;28;20160;-67
2022/04/05 19:18:20;;;;;;;16.85;10.23;;;;;;;7.06;100.00;99379.19;5017914;28;20058;-65
2022/04/05 19:20:47;;;;;;;12.10;9.35;;;;;;;7.06;100.00;99379.19;5021314;28;20084;-65
2022/04/05 19:23:15;;;;;;;13.88;9.63;;;;;;;7.05;100.00;99380.16;5020223;28;20049;-64
2022/04/05 19:25:42;;;;;;;12.07;9.30;;;;;;;7.08;100.00;99383.41;5022374;28;20041;-65
2022/04/05 19:28:09;;;;;;;14.15;9.10;;;;;;;7.04;100.00;99378.47;5022073;28;20053;-66
2022/04/05 19:30:36;;;;;;;10.70;8.27;;;;;;;7.04;100.00;99374.06;5004884;28;20053;-66
2022/04/05 19:33:05;;;;;;;10.73;8.43;;;;;;;7.04;100.00;99379.31;5021500;28;20057;-65
2022/04/05 19:35:33;;;;;;;10.32;8.93;;;;;;;7.06;100.00;99379.19;5019492;28;20056;-65
2022/04/05 19:38:00;;;;;;;14.45;9.05;;;;;;;7.08;100.00;99374.72;5021923;28;20053;-64
2022/04/05 19:40:28;;;;;;;11.50;8.70;;;;;;;7.08;100.00;99372.94;5005583;28;20048;-65
2022/04/05 19:42:55;;;;;;;13.13;9.13;;;;;;;7.07;100.00;99381.72;5022827;28;20092;-65
2022/04/05 19:45:24;;;;;;;11.70;9.48;;;;;;;7.05;100.00;99382.75;5006137;28;20179;-68
2022/04/05 19:47:52;;;;;;;16.27;10.27;;;;;;;7.07;100.00;99384.34;5003670;28;20057;-64
2022/04/05 19:50:19;;;;;;;14.10;10.82;;;;;;;7.08;100.00;99383.41;5025798;28;20082;-65
2022/04/05 19:52:47;;;;;;;12.90;9.13;;;;;;;7.06;100.00;99389.66;5024641;28;20049;-65
2022/04/05 19:55:14;;;;;;;15.30;10.45;;;;;;;7.08;100.00;99386.03;5024757;28;20521;-65
2022/04/05 19:57:41;;;;;;;13.20;10.10;;;;;;;7.08;100.00;99370.31;5009115;28;20057;-67
2022/04/05 20:00:10;;;;;;;16.67;10.43;;;;;;;7.09;100.00;99390.31;5008444;28;20056;-65
2022/04/05 20:02:38;;;;;;;16.92;9.27;;;;;;;7.06;100.00;99384.44;5028123;28;20061;-67
2022/04/05 20:05:07;;;;;;;12.88;9.70;;;;;;;7.08;100.00;99387.81;5006062;28;20045;-65
2022/04/05 20:07:34;;;;;;;16.17;11.02;;;;;;;7.08;100.00;99388.63;5027647;28;20053;-65
2022/04/05 20:10:04;;;;;;;14.15;9.80;;;;;;;7.09;100.00;99376.41;5009409;28;20048;-67
2022/04/05 20:12:32;;;;;;;18.17;11.38;;;;;;;7.08;100.00;99388.63;5004601;28;20060;-65
2022/04/05 20:14:59;;;;;;;15.38;11.15;;;;;;;7.07;100.00;99379.13;5011603;28;20049;-66
2022/04/05 20:20:12;;;;;;;25.40;11.18;;;;;;;7.03;100.00;99393.34;5000093;28;20081;-65
2022/04/05 20:22:39;;;;;;;13.18;11.25;;;;;;;7.05;100.00;99382.75;5026831;28;20133;-65
2022/04/05 20:25:07;;;;;;;14.98;11.02;;;;;;;7.08;100.00;99386.03;5012585;28;20370;-65
2022/04/05 20:27:34;;;;;;;15.23;10.95;;;;;;;7.08;100.00;99375.56;5010439;28;20033;-66
2022/04/05 20:30:02;;;;;;;15.50;11.73;;;;;;;7.08;100.00;99379.94;5071292;22;20060;-62
2022/04/05 20:32:29;;;;;;;14.93;11.27;;;;;;;7.09;100.00;99376.41;5075927;28;20056;-64
2022/04/05 20:34:57;;;;;;;13.00;10.98;;;;;;;7.12;100.00;99375.38;5058623;28;20057;-65
2022/04/05 20:37:30;;;;;;;17.35;12.73;;;;;;;7.12;100.00;99383.22;5042853;28;20041;-63
2022/04/05 20:39:59;;;;;;;16.08;11.82;;;;;;;7.15;100.00;99385.63;5051928;28;20052;-64
2022/04/05 20:42:26;;;;;;;16.33;11.65;;;;;;;7.14;100.00;99374.31;5056446;28;20272;-63
2022/04/05 20:44:53;;;;;;;17.13;12.50;;;;;;;7.14;100.00;99369.06;5059545;28;20060;-62
2022/04/05 20:47:21;;;;;;;14.80;10.85;;;;;;;7.14;100.00;99363.00;5069678;28;20079;-63
2022/04/05 20:49:48;;;;;;;16.73;11.88;;;;;;;7.12;100.00;99365.75;5051058;28;20049;-64
2022/04/05 20:52:15;;;;;;;14.20;10.70;;;;;;;7.07;100.00;99362.59;5064991;28;20048;-64
2022/04/05 20:54:42;;;;;;;15.43;11.57;;;;;;;7.09;100.00;99350.22;5051704;28;20051;-63
2022/04/05 20:57:09;;;;;;;15.55;12.27;;;;;;;7.11;100.00;99350.94;5067191;28;20404;-63
2022/04/05 20:59:37;;;;;;;15.77;11.88;;;;;;;7.12;100.00;99349.19;5051399;28;20048;-63
2022/04/05 21:02:04;;;;;;;14.90;11.98;;;;;;;7.10;100.00;99351.91;5049798;28;20048;-65
2022/04/05 21:04:33;;;;;;;15.70;11.45;;;;;;;7.10;100.00;99337.03;5064203;28;20063;-64
2022/04/05 21:07:00;;;;;;;16.95;11.70;;;;;;;7.11;100.00;99332.63;5061658;28;20067;-63
2022/04/05 21:09:28;;;;;;;13.00;11.30;;;;;;;7.10;100.00;99333.56;5068948;28;20052;-63
2022/04/05 21:11:55;;;;;;;15.55;12.63;;;;;;;7.07;100.00;99332.00;5067227;28;20056;-64
2022/04/05 21:14:22;;;;;;;16.33;12.00;;;;;;;7.10;100.00;99346.66;5054108;28;20047;-65
2022/04/05 21:16:49;;;;;;;13.63;11.90;;;;;;;7.12;100.00;99329.09;5054953;28;20055;-63
2022/04/05 21:19:16;;;;;;;17.27;12.35;;;;;;;7.12;100.00;99346.59;5040622;28;20053;-64
2022/04/05 21:21:44;;;;;;;13.63;11.45;;;;;;;7.10;100.00;99346.66;5030858;28;20056;-63